Time;durP1;ratioP1;P1;durP2;ratioP2;P2;SDS_P1;SDS_P2;PMS_P1;PMS_P2;Temp;Humidity;BMP_temperature;BMP_pressure;BME280_temperature;BME280_humidity;BME280_pressure;Samples;Min_cycle;Max_cycle;Signal;HPM_P1;HPM_P2
2022/03/31 00:00:41;;;;;;;34.83;26.93;;;;;;;5.61;86.46;99337.06;1716065;82;21071;-69
2022/03/31 00:03:11;;;;;;;34.40;28.50;;;;;;;5.62;86.74;99332.11;1660102;85;21590;-68
2022/03/31 00:05:40;;;;;;;35.93;29.27;;;;;;;5.63;86.93;99338.55;1663336;85;21035;-69
2022/03/31 00:08:13;;;;;;;33.67;29.30;;;;;;;5.62;87.14;99342.69;1659213;85;21184;-67
2022/03/31 00:10:43;;;;;;;33.93;27.33;;;;;;;5.65;87.03;99337.02;1660880;85;21626;-68
2022/03/31 00:13:13;;;;;;;33.87;28.20;;;;;;;5.73;87.15;99336.14;1644192;85;21594;-68
2022/03/31 00:15:42;;;;;;;36.30;29.67;;;;;;;5.80;87.12;99332.59;1638864;86;21430;-67
2022/03/31 00:18:11;;;;;;;37.27;29.73;;;;;;;5.87;87.05;99318.12;1674822;84;21042;-67
2022/03/31 00:20:38;;;;;;;35.77;29.40;;;;;;;5.84;86.93;99307.92;1670609;84;21053;-69
2022/03/31 00:23:09;;;;;;;36.90;28.53;;;;;;;5.94;86.66;99314.25;1672031;84;21363;-69
2022/03/31 00:25:35;;;;;;;30.33;26.27;;;;;;;5.54;86.39;99254.20;1671418;84;21637;-68
2022/03/31 00:28:04;;;;;;;33.80;27.30;;;;;;;6.07;86.21;99321.06;1671611;84;21545;-69
2022/03/31 00:30:33;;;;;;;36.27;29.70;;;;;;;6.11;86.14;99317.55;1678023;84;21683;-68
2022/03/31 00:33:01;;;;;;;38.30;30.93;;;;;;;6.14;86.09;99303.94;1683588;84;21124;-68
2022/03/31 00:35:30;;;;;;;34.97;29.40;;;;;;;6.15;86.13;99295.82;1674614;84;21172;-68
2022/03/31 00:37:57;;;;;;;32.30;28.07;;;;;;;6.20;86.32;99306.68;1673938;84;21039;-69
2022/03/31 00:40:27;;;;;;;33.77;27.63;;;;;;;6.27;86.11;99309.39;1674856;84;21093;-69
2022/03/31 00:42:57;;;;;;;34.60;27.63;;;;;;;6.31;85.88;99321.75;1671215;84;21505;-69
2022/03/31 00:45:28;;;;;;;35.93;28.67;;;;;;;6.35;85.71;99309.81;1680785;84;21130;-69
2022/03/31 00:47:56;;;;;;;36.47;28.47;;;;;;;6.39;85.66;99305.27;1683316;84;21053;-69
2022/03/31 00:50:24;;;;;;;29.63;24.53;;;;;;;6.42;85.41;99323.44;1659723;84;21553;-69
2022/03/31 00:52:50;;;;;;;34.07;27.33;;;;;;;6.43;85.06;99330.35;1675838;84;21093;-68
2022/03/31 00:55:20;;;;;;;33.23;27.03;;;;;;;6.40;85.00;99325.93;1670880;84;21083;-69
2022/03/31 00:57:55;;;;;;;29.07;25.23;;;;;;;6.33;85.27;99331.64;1671883;84;21073;-70
2022/03/31 01:00:19;;;;;;;29.77;25.30;;;;;;;6.30;85.43;99328.88;1674208;83;21085;-69
2022/03/31 01:02:47;;;;;;;29.43;25.37;;;;;;;6.28;85.56;99326.92;1701291;83;21100;-69
2022/03/31 01:05:15;;;;;;;34.37;25.30;;;;;;;6.29;85.57;99321.95;1665375;84;21065;-69
2022/03/31 01:07:44;;;;;;;32.30;26.40;;;;;;;6.33;85.59;99340.42;1699610;83;21467;-69
2022/03/31 01:10:14;;;;;;;29.43;24.97;;;;;;;6.37;85.60;99329.78;1708805;83;21899;-68
2022/03/31 01:12:42;;;;;;;31.77;25.80;;;;;;;6.38;85.59;99314.20;1679522;83;21113;-69
2022/03/31 01:15:18;;;;;;;29.67;24.73;;;;;;;6.41;85.55;99320.97;1671277;85;21062;-68
2022/03/31 01:17:48;;;;;;;31.40;26.37;;;;;;;6.40;85.41;99313.54;1665842;84;21130;-69
2022/03/31 01:20:22;;;;;;;28.77;24.83;;;;;;;6.45;85.46;99313.48;1659430;84;21057;-68
2022/03/31 01:22:51;;;;;;;30.80;25.77;;;;;;;6.48;85.42;99308.63;1670837;84;21158;-69
2022/03/31 01:25:19;;;;;;;30.57;24.83;;;;;;;6.52;85.42;99304.59;1670360;84;21050;-68
2022/03/31 01:27:48;;;;;;;28.97;25.27;;;;;;;6.58;85.39;99304.35;1659825;84;21050;-69
2022/03/31 01:30:21;;;;;;;29.53;26.00;;;;;;;6.60;85.16;99304.47;1666920;84;21035;-69
2022/03/31 01:32:49;;;;;;;28.63;23.67;;;;;;;6.63;84.94;99303.30;1672819;84;22226;-69
2022/03/31 01:35:17;;;;;;;27.30;22.93;;;;;;;6.66;84.87;99299.44;1688720;84;21047;-69
2022/03/31 01:37:45;;;;;;;23.70;20.93;;;;;;;6.68;84.73;99296.09;1698530;83;21178;-67
2022/03/31 01:40:13;;;;;;;26.53;22.27;;;;;;;6.72;84.53;99293.38;1698254;83;21079;-68
2022/03/31 01:42:45;;;;;;;26.40;23.60;;;;;;;6.72;84.18;99286.77;1693281;83;21135;-68
2022/03/31 01:45:15;;;;;;;27.27;22.77;;;;;;;6.72;84.01;99284.92;1699350;83;21028;-68
2022/03/31 01:47:44;;;;;;;26.23;22.80;;;;;;;6.75;83.73;99293.02;1699488;83;21186;-68
2022/03/31 01:50:12;;;;;;;22.70;19.53;;;;;;;6.77;83.29;99306.89;1696785;83;20997;-69
2022/03/31 01:52:40;;;;;;;24.33;21.07;;;;;;;6.72;82.79;99307.95;1698597;83;21430;-68
2022/03/31 01:55:09;;;;;;;26.00;21.00;;;;;;;6.59;82.94;99303.33;1698655;82;21094;-68
2022/03/31 01:57:37;;;;;;;26.07;23.07;;;;;;;6.53;83.00;99290.85;1699631;83;21099;-68
2022/03/31 02:00:07;;;;;;;27.37;22.90;;;;;;;6.50;83.31;99284.59;1698056;83;21325;-69
2022/03/31 02:02:42;;;;;;;25.07;21.73;;;;;;;6.50;83.37;99295.19;1670005;84;21123;-69
2022/03/31 02:05:09;;;;;;;25.43;22.17;;;;;;;6.43;83.08;99291.16;1664096;84;22548;-68
2022/03/31 02:07:36;;;;;;;28.07;23.80;;;;;;;6.32;83.36;99287.16;1669914;84;21084;-68
2022/03/31 02:10:11;;;;;;;27.20;23.27;;;;;;;6.28;83.69;99279.28;1656900;84;21188;-68
2022/03/31 02:12:40;;;;;;;26.73;22.50;;;;;;;6.31;84.06;99272.78;1666824;84;21112;-68
2022/03/31 02:15:10;;;;;;;27.53;23.00;;;;;;;6.34;84.08;99264.48;1669700;84;21080;-69
2022/03/31 02:17:36;;;;;;;25.83;23.03;;;;;;;6.34;84.04;99257.87;1669483;84;21003;-69
2022/03/31 02:20:04;;;;;;;26.93;22.32;;;;;;;6.35;84.06;99255.04;1669135;84;21100;-68
2022/03/31 02:22:31;;;;;;;25.77;21.13;;;;;;;6.36;84.07;99242.11;1677318;83;21100;-69
2022/03/31 02:24:58;;;;;;;25.13;22.30;;;;;;;6.37;83.93;99233.17;1697470;83;21051;-70
2022/03/31 02:27:24;;;;;;;;;;;;;;;6.37;83.85;99233.17;1670984;84;21616;-68
2022/03/31 02:29:50;;;;;;;26.83;22.30;;;;;;;6.35;83.87;99230.41;1689446;84;20172;-69
2022/03/31 02:32:17;;;;;;;24.85;22.13;;;;;;;6.28;83.97;99227.68;1679585;85;21074;-69
2022/03/31 02:34:44;;;;;;;26.20;22.23;;;;;;;6.28;84.01;99225.03;1632945;86;21048;-69
2022/03/31 02:37:13;;;;;;;24.43;20.70;;;;;;;6.31;83.98;99228.64;1637937;85;21548;-68
2022/03/31 02:39:40;;;;;;;25.50;22.17;;;;;;;6.34;83.83;99225.59;1648539;85;21054;-68
2022/03/31 02:42:07;;;;;;;29.30;24.02;;;;;;;6.29;83.43;99217.42;1646834;85;21042;-66
2022/03/31 02:44:34;;;;;;;25.03;22.33;;;;;;;6.23;83.25;99218.15;1630986;86;21084;-70
2022/03/31 02:47:00;;;;;;;27.70;23.02;;;;;;;6.20;83.36;99212.73;1650341;85;21135;-67
2022/03/31 02:49:27;;;;;;;25.10;22.40;;;;;;;6.14;83.38;99202.91;1650751;85;21609;-70
2022/03/31 02:51:53;;;;;;;26.02;23.05;;;;;;;6.14;83.57;99204.72;1633102;85;21595;-70
2022/03/31 02:57:04;;;;;;;28.03;23.17;;;;;;;6.13;83.63;99207.06;1640813;85;21070;-72
2022/03/31 02:59:33;;;;;;;;;;;;;;;6.08;83.50;99206.28;1694184;83;21155;-69
2022/03/31 03:01:59;;;;;;;;;;;;;;;6.05;83.50;99201.39;1677511;82;20144;-69
2022/03/31 03:04:27;;;;;;;26.57;22.70;;;;;;;5.99;83.63;99197.66;1667397;84;20129;-68
2022/03/31 03:06:53;;;;;;;29.90;23.10;;;;;;;5.89;83.69;99199.73;1668837;84;21100;-70
2022/03/31 03:09:20;;;;;;;25.13;22.57;;;;;;;5.84;83.92;99200.81;1658868;84;21529;-70
2022/03/31 03:11:48;;;;;;;29.50;24.97;;;;;;;5.84;84.09;99193.70;1662070;84;21090;-69
2022/03/31 03:14:15;;;;;;;28.30;23.00;;;;;;;5.80;84.05;99195.55;1667844;85;21089;-69
2022/03/31 03:16:43;;;;;;;26.93;23.27;;;;;;;5.76;84.20;99191.65;1668512;84;21183;-68
2022/03/31 03:19:10;;;;;;;27.40;24.23;;;;;;;5.73;84.26;99191.53;1668378;84;22702;-67
2022/03/31 03:21:38;;;;;;;28.17;23.43;;;;;;;5.68;84.39;99184.64;1669022;84;21081;-70
2022/03/31 03:24:06;;;;;;;24.93;22.33;;;;;;;5.65;84.50;99187.64;1667486;86;21137;-68
2022/03/31 03:26:33;;;;;;;23.60;20.80;;;;;;;5.56;84.71;99192.74;1613196;87;21072;-69
2022/03/31 03:29:00;;;;;;;26.87;23.98;;;;;;;5.48;85.05;99189.67;1668867;84;21152;-69
2022/03/31 03:31:27;;;;;;;26.80;22.67;;;;;;;5.45;85.29;99191.38;1668447;84;21107;-68
2022/03/31 03:33:55;;;;;;;26.33;23.57;;;;;;;5.45;85.54;99186.09;1658471;85;21136;-68
2022/03/31 03:36:22;;;;;;;26.53;22.97;;;;;;;5.47;85.64;99189.36;1665481;84;21096;-69
2022/03/31 03:38:48;;;;;;;;;;;;;;;5.49;85.67;99190.51;1662487;84;21082;-68
2022/03/31 03:41:17;;;;;;;25.77;22.62;;;;;;;5.50;85.78;99186.37;1668165;84;20109;-69
2022/03/31 03:43:44;;;;;;;24.03;21.43;;;;;;;5.50;86.05;99187.69;1668424;84;21103;-69
2022/03/31 03:46:11;;;;;;;28.20;21.97;;;;;;;5.51;86.01;99181.89;1681966;84;21582;-68
2022/03/31 03:48:38;;;;;;;22.83;20.23;;;;;;;5.49;86.07;99177.30;1684648;84;21462;-68
2022/03/31 03:51:04;;;;;;;;;;;;;;;5.51;86.30;99166.84;1681215;84;21048;-68
2022/03/31 03:53:31;;;;;;;24.27;21.53;;;;;;;5.51;86.23;99164.71;1684588;84;20133;-69
2022/03/31 03:55:58;;;;;;;30.57;24.70;;;;;;;5.47;86.54;99160.30;1677122;84;21071;-69
2022/03/31 03:58:25;;;;;;;25.72;20.48;;;;;;;5.50;86.72;99162.58;1684201;84;21432;-68
2022/03/31 04:00:53;;;;;;;24.13;21.50;;;;;;;5.54;86.73;99154.59;1684538;84;21068;-69
2022/03/31 04:03:21;;;;;;;23.80;21.37;;;;;;;5.55;86.70;99154.89;1683584;84;21097;-70
2022/03/31 04:05:48;;;;;;;23.22;20.82;;;;;;;5.56;86.80;99151.27;1648893;85;21136;-69
2022/03/31 04:08:15;;;;;;;24.63;21.50;;;;;;;5.55;86.59;99150.93;1697292;83;21099;-69
2022/03/31 04:10:42;;;;;;;23.60;21.10;;;;;;;5.55;86.72;99144.83;1690389;83;21008;-69
2022/03/31 04:13:09;;;;;;;22.63;19.70;;;;;;;5.56;86.90;99140.69;1692437;83;21152;-69
2022/03/31 04:15:37;;;;;;;22.07;19.83;;;;;;;5.59;87.15;99135.02;1691723;83;20976;-69
2022/03/31 04:18:05;;;;;;;24.17;20.87;;;;;;;5.62;87.18;99134.66;1683339;83;21550;-69
2022/03/31 04:20:32;;;;;;;23.07;20.70;;;;;;;5.60;87.12;99125.28;1691083;83;21562;-69
2022/03/31 04:23:01;;;;;;;22.43;20.07;;;;;;;5.59;87.36;99121.80;1692180;83;21535;-69
2022/03/31 04:25:28;;;;;;;22.27;19.70;;;;;;;5.57;87.45;99117.20;1692296;83;21355;-69
2022/03/31 04:27:57;;;;;;;22.73;20.23;;;;;;;5.53;87.54;99115.13;1691510;83;21012;-69
2022/03/31 04:30:26;;;;;;;22.83;20.43;;;;;;;5.55;87.87;99112.60;1693062;83;21603;-69
2022/03/31 04:32:54;;;;;;;21.17;18.97;;;;;;;5.57;88.00;99109.27;1678992;83;21016;-69
2022/03/31 04:35:21;;;;;;;22.40;20.10;;;;;;;5.60;87.95;99104.94;1681223;83;21023;-69
2022/03/31 04:37:48;;;;;;;;;;;;;;;5.62;87.92;99105.57;1694838;83;21099;-68
2022/03/31 04:40:15;;;;;;;22.40;20.10;;;;;;;5.63;87.85;99101.94;1687325;83;20121;-69
2022/03/31 04:42:43;;;;;;;20.57;18.47;;;;;;;5.59;87.95;99103.80;1686503;83;21111;-69
2022/03/31 04:45:10;;;;;;;20.70;18.47;;;;;;;5.58;88.01;99107.47;1691652;83;22346;-68
2022/03/31 04:47:37;;;;;;;22.97;19.67;;;;;;;5.58;88.17;99099.53;1691454;83;21123;-70
2022/03/31 04:50:04;;;;;;;22.33;19.97;;;;;;;5.57;88.24;99088.13;1692021;83;20985;-69
2022/03/31 04:52:34;;;;;;;21.10;19.00;;;;;;;5.59;88.31;99092.72;1692323;83;21059;-69
2022/03/31 04:55:00;;;;;;;23.47;20.23;;;;;;;5.61;88.41;99089.41;1692376;83;21135;-69
2022/03/31 04:57:28;;;;;;;21.70;19.40;;;;;;;5.65;88.45;99086.70;1691805;83;21075;-70
2022/03/31 04:59:56;;;;;;;21.23;18.97;;;;;;;5.69;88.51;99084.51;1687138;83;21182;-68
2022/03/31 05:02:22;;;;;;;21.70;18.70;;;;;;;5.70;88.59;99082.16;1700774;83;21035;-69
2022/03/31 05:04:50;;;;;;;19.60;17.70;;;;;;;5.73;88.73;99073.87;1690298;83;21207;-68
2022/03/31 05:07:16;;;;;;;21.50;19.27;;;;;;;5.75;88.64;99071.85;1654919;84;20981;-70
2022/03/31 05:09:45;;;;;;;24.60;20.47;;;;;;;5.79;88.66;99071.78;1648366;85;22309;-69
2022/03/31 05:12:14;;;;;;;23.80;20.77;;;;;;;5.85;88.78;99078.15;1653056;86;21137;-69
2022/03/31 05:14:41;;;;;;;25.60;19.53;;;;;;;5.90;88.79;99078.92;1663733;85;21128;-69
2022/03/31 05:17:08;;;;;;;22.93;20.00;;;;;;;5.96;88.80;99075.03;1605412;87;21706;-70
2022/03/31 05:19:35;;;;;;;24.10;20.20;;;;;;;6.01;88.72;99074.48;1665980;85;21062;-68
2022/03/31 05:22:01;;;;;;;23.32;20.92;;;;;;;6.07;88.48;99072.91;1666240;85;21150;-69
2022/03/31 05:24:28;;;;;;;24.23;21.40;;;;;;;6.10;88.37;99078.61;1665041;85;21078;-69
2022/03/31 05:26:55;;;;;;;24.30;20.03;;;;;;;6.15;88.14;99076.73;1664228;85;22385;-70
2022/03/31 05:29:22;;;;;;;22.30;19.75;;;;;;;6.18;88.02;99088.27;1665124;85;21636;-68
2022/03/31 05:31:53;;;;;;;21.77;19.37;;;;;;;6.19;87.80;99089.38;1663129;85;21199;-69
2022/03/31 05:34:21;;;;;;;23.07;20.37;;;;;;;6.18;87.73;99078.49;1651943;84;21085;-69
2022/03/31 05:36:48;;;;;;;23.30;20.10;;;;;;;6.17;87.57;99079.48;1681350;83;21611;-69
2022/03/31 05:39:16;;;;;;;21.70;19.43;;;;;;;6.11;87.52;99076.80;1635370;86;21617;-67
2022/03/31 05:41:44;;;;;;;25.30;21.87;;;;;;;5.73;87.82;99028.11;1697258;83;21052;-68
2022/03/31 05:44:10;;;;;;;25.53;21.53;;;;;;;6.06;88.21;99091.09;1692070;83;21096;-68
2022/03/31 05:46:38;;;;;;;26.30;21.60;;;;;;;6.02;88.33;99086.17;1695640;83;21552;-70
2022/03/31 05:49:04;;;;;;;;;;;;;;;6.06;88.61;99077.87;1699870;83;21095;-68
2022/03/31 05:51:31;;;;;;;25.93;21.07;;;;;;;6.10;88.59;99065.38;1696100;83;20150;-68
2022/03/31 05:53:58;;;;;;;23.50;20.27;;;;;;;6.11;88.62;99063.57;1697171;83;21744;-67
2022/03/31 05:56:25;;;;;;;23.63;20.03;;;;;;;6.16;88.57;99059.34;1696940;83;21150;-70
2022/03/31 05:58:52;;;;;;;22.80;20.33;;;;;;;6.21;88.41;99064.86;1689136;83;21110;-68
2022/03/31 06:01:19;;;;;;;22.50;20.15;;;;;;;6.28;88.34;99054.34;1697552;83;21032;-69
2022/03/31 06:03:48;;;;;;;21.63;19.33;;;;;;;6.36;88.20;99050.22;1695995;83;21019;-68
2022/03/31 06:06:16;;;;;;;24.93;20.00;;;;;;;6.42;87.97;99053.92;1697581;83;21079;-68
2022/03/31 06:08:45;;;;;;;22.33;18.97;;;;;;;6.46;87.64;99059.17;1695986;83;21132;-69
2022/03/31 06:11:13;;;;;;;24.03;21.00;;;;;;;6.52;87.35;99066.84;1695598;82;21127;-70
2022/03/31 06:13:42;;;;;;;23.13;19.93;;;;;;;6.54;87.13;99065.63;1696189;83;21147;-69
2022/03/31 06:16:12;;;;;;;23.47;19.60;;;;;;;6.58;86.90;99052.83;1696378;83;21124;-69
2022/03/31 06:18:42;;;;;;;22.17;19.80;;;;;;;6.61;86.70;99047.13;1702711;82;21039;-69
2022/03/31 06:21:10;;;;;;;21.50;19.23;;;;;;;6.66;86.75;99039.42;1697135;83;21031;-68
2022/03/31 06:23:39;;;;;;;25.20;19.87;;;;;;;6.73;86.85;99038.97;1693492;82;21089;-68
2022/03/31 06:26:08;;;;;;;23.23;19.87;;;;;;;6.85;86.97;99028.62;1696790;83;21088;-68
2022/03/31 06:28:36;;;;;;;21.27;19.03;;;;;;;7.04;87.34;99036.36;1697499;83;21071;-67
2022/03/31 06:31:05;;;;;;;21.63;19.33;;;;;;;7.25;86.90;99034.61;1692119;83;21158;-71
2022/03/31 06:33:37;;;;;;;24.03;18.90;;;;;;;7.44;85.41;99030.38;1638116;86;21148;-71
2022/03/31 06:36:06;;;;;;;21.00;18.23;;;;;;;7.60;84.71;99036.66;1653208;85;21164;-68
2022/03/31 06:38:34;;;;;;;20.73;17.73;;;;;;;7.77;84.46;99029.94;1666567;84;21042;-69
2022/03/31 06:41:06;;;;;;;18.90;16.90;;;;;;;8.00;84.05;99024.76;1643722;86;21081;-72
2022/03/31 06:43:37;;;;;;;20.20;18.00;;;;;;;8.22;82.44;99024.57;1626738;86;21077;-73
2022/03/31 06:46:06;;;;;;;18.90;17.00;;;;;;;8.36;80.25;99030.16;1635285;86;21201;-68
2022/03/31 06:48:38;;;;;;;18.67;16.43;;;;;;;8.38;80.40;99028.11;1658669;85;22271;-71
2022/03/31 06:51:08;;;;;;;19.23;16.97;;;;;;;8.48;80.45;99029.07;1665805;84;21142;-72
2022/03/31 06:53:37;;;;;;;23.30;17.23;;;;;;;8.65;80.14;99018.83;1668260;84;21035;-71
2022/03/31 06:56:13;;;;;;;18.80;16.83;;;;;;;8.83;79.53;99014.97;1655190;86;21034;-71
2022/03/31 06:58:44;;;;;;;18.87;16.90;;;;;;;8.93;77.87;99011.89;1666300;84;21035;-70
2022/03/31 07:01:12;;;;;;;19.13;17.23;;;;;;;8.90;77.48;99017.62;1667983;84;21100;-71
2022/03/31 07:03:43;;;;;;;17.40;15.60;;;;;;;8.91;78.19;99020.08;1666141;84;21246;-72
2022/03/31 07:06:10;;;;;;;17.43;15.57;;;;;;;9.09;77.98;99023.36;1663812;84;21143;-70
2022/03/31 07:08:40;;;;;;;18.43;16.27;;;;;;;9.24;76.94;99029.75;1665098;84;21013;-70
2022/03/31 07:11:13;;;;;;;16.97;15.27;;;;;;;9.34;76.23;99030.61;1639881;86;21556;-68
2022/03/31 07:13:43;;;;;;;18.13;16.30;;;;;;;9.37;76.12;99034.19;1647529;85;21134;-70
2022/03/31 07:16:16;;;;;;;20.73;15.70;;;;;;;9.41;75.45;99025.27;1695451;83;21030;-71
2022/03/31 07:18:47;;;;;;;19.20;17.30;;;;;;;9.33;75.77;99024.48;1671741;84;21692;-70
2022/03/31 07:21:19;;;;;;;18.70;16.73;;;;;;;9.31;76.38;99023.89;1641535;86;21047;-73
2022/03/31 07:23:50;;;;;;;18.00;16.13;;;;;;;9.39;76.24;99032.13;1667560;84;21034;-70
2022/03/31 07:26:22;;;;;;;16.77;15.07;;;;;;;9.54;76.40;99026.00;1654375;85;21062;-70
2022/03/31 07:28:51;;;;;;;18.87;16.97;;;;;;;9.74;75.09;99018.44;1666420;84;21063;-70
2022/03/31 07:31:26;;;;;;;17.43;15.80;;;;;;;9.69;74.31;99019.06;1666271;84;22288;-71
2022/03/31 07:33:56;;;;;;;19.37;17.33;;;;;;;9.63;74.36;99003.97;1666177;84;21629;-69
2022/03/31 07:36:26;;;;;;;17.10;15.40;;;;;;;9.63;75.26;99011.95;1668239;84;20993;-70
2022/03/31 07:38:54;;;;;;;18.87;16.87;;;;;;;9.72;75.20;99011.19;1636987;86;21074;-71
2022/03/31 07:41:22;;;;;;;18.33;16.43;;;;;;;9.72;74.69;99005.34;1665935;85;21911;-70
2022/03/31 07:43:51;;;;;;;17.20;15.20;;;;;;;9.73;75.26;99001.63;1655132;85;21069;-71
2022/03/31 07:46:22;;;;;;;19.80;17.67;;;;;;;9.86;75.45;99001.25;1696593;83;21071;-70
2022/03/31 07:48:49;;;;;;;20.63;18.43;;;;;;;9.88;74.14;98991.20;1697019;83;21063;-71
2022/03/31 07:51:18;;;;;;;21.57;17.60;;;;;;;9.92;75.34;98989.20;1688246;83;21650;-72
2022/03/31 07:53:49;;;;;;;19.57;16.83;;;;;;;9.98;74.89;98986.19;1697263;83;21539;-72
2022/03/31 07:56:21;;;;;;;17.97;16.10;;;;;;;10.00;75.26;98980.16;1692652;83;21099;-71
2022/03/31 07:58:54;;;;;;;18.80;16.87;;;;;;;10.03;74.88;98974.38;1696774;83;21058;-71
2022/03/31 08:01:22;;;;;;;17.70;15.90;;;;;;;10.10;75.28;98974.34;1696748;82;21063;-72
2022/03/31 08:03:54;;;;;;;18.93;17.13;;;;;;;10.22;74.63;98974.43;1696638;83;21532;-72
2022/03/31 08:06:24;;;;;;;18.83;16.97;;;;;;;10.32;74.24;98964.94;1697055;83;21859;-70
2022/03/31 08:08:54;;;;;;;17.67;15.83;;;;;;;10.46;74.20;98962.95;1672452;84;21056;-73
2022/03/31 08:11:25;;;;;;;19.00;17.00;;;;;;;10.54;73.58;98968.50;1696792;83;21048;-72
2022/03/31 08:13:58;;;;;;;20.40;18.37;;;;;;;10.59;73.51;98951.34;1704431;82;21129;-71
2022/03/31 08:16:27;;;;;;;20.10;18.00;;;;;;;10.67;73.15;98953.70;1680081;83;21502;-71
2022/03/31 08:18:55;;;;;;;21.10;18.93;;;;;;;10.74;73.42;98952.30;1696726;83;21126;-71
2022/03/31 08:21:25;;;;;;;19.93;17.93;;;;;;;10.79;73.37;98952.95;1693946;83;21115;-71
2022/03/31 08:26:43;;;;;;;22.00;19.90;;;;;;;10.94;72.93;98948.03;1783299;78;23069;-70
2022/03/31 08:29:13;;;;;;;22.43;19.53;;;;;;;10.94;72.38;98942.70;1735343;81;21049;-73
2022/03/31 08:31:45;;;;;;;22.73;20.63;;;;;;;11.01;71.93;98943.97;1722839;81;20971;-68
2022/03/31 08:34:16;;;;;;;23.13;19.50;;;;;;;11.01;70.68;98943.97;1717931;80;21045;-70
2022/03/31 08:36:46;;;;;;;22.00;19.87;;;;;;;10.94;70.55;98953.89;1661753;84;20997;-71
2022/03/31 08:39:15;;;;;;;21.13;19.07;;;;;;;10.93;71.62;98954.42;1683782;83;21033;-71
2022/03/31 08:41:48;;;;;;;21.37;19.27;;;;;;;11.05;71.36;98957.94;1690818;83;21028;-70
2022/03/31 08:44:21;;;;;;;25.80;23.33;;;;;;;11.23;69.67;98960.30;1680889;83;21002;-71
2022/03/31 08:46:53;;;;;;;25.30;22.67;;;;;;;11.34;69.76;98964.03;1714843;82;21033;-71
2022/03/31 08:49:26;;;;;;;24.63;22.17;;;;;;;11.38;69.32;98954.02;1712253;82;21069;-70
2022/03/31 08:51:55;;;;;;;23.27;20.83;;;;;;;11.36;67.62;98948.60;1713160;82;20962;-74
2022/03/31 08:54:23;;;;;;;24.33;21.97;;;;;;;11.32;68.51;98950.94;1718215;82;21015;-70
2022/03/31 08:56:55;;;;;;;25.67;23.07;;;;;;;11.33;68.93;98953.88;1709843;81;21577;-74
2022/03/31 08:59:24;;;;;;;24.87;22.47;;;;;;;11.34;68.10;98955.52;1747593;80;21721;-72
2022/03/31 09:01:55;;;;;;;26.23;23.63;;;;;;;11.39;68.14;98941.49;1753092;79;21119;-71
2022/03/31 09:04:24;;;;;;;24.92;22.30;;;;;;;11.46;68.61;98951.55;1715693;80;21029;-72
2022/03/31 09:07:11;;;;;;;26.53;23.87;;;;;;;11.56;68.07;98947.80;1720906;80;20953;-71
2022/03/31 09:09:51;;;;;;;;;;;;;;;11.63;67.44;98946.37;1737439;80;21548;-70
2022/03/31 09:12:24;;;;;;;25.10;22.60;;;;;;;11.73;67.01;98934.59;1741428;80;20410;-72
2022/03/31 09:14:54;;;;;;;25.67;22.97;;;;;;;11.78;67.03;98937.39;1710045;82;21362;-71
2022/03/31 09:17:24;;;;;;;26.67;23.93;;;;;;;11.84;67.02;98933.80;1699878;83;21032;-72
2022/03/31 09:19:59;;;;;;;24.90;22.47;;;;;;;11.92;66.79;98931.86;1642990;84;20998;-73
2022/03/31 09:22:27;;;;;;;25.40;22.58;;;;;;;11.99;66.62;98925.36;1690946;83;21045;-71
2022/03/31 09:25:02;;;;;;;25.73;23.23;;;;;;;12.08;65.88;98925.31;1672097;84;21771;-71
2022/03/31 09:27:32;;;;;;;23.90;21.68;;;;;;;12.10;65.47;98933.63;1673957;83;21022;-71
2022/03/31 09:30:08;;;;;;;24.57;22.22;;;;;;;12.08;65.39;98930.65;1696200;82;21085;-71
2022/03/31 09:32:48;;;;;;;27.30;23.42;;;;;;;12.11;65.55;98929.39;1669341;83;21040;-71
2022/03/31 09:35:21;;;;;;;25.30;22.60;;;;;;;12.22;65.52;98925.06;1644194;84;21053;-71
2022/03/31 09:37:55;;;;;;;27.98;23.00;;;;;;;12.35;64.94;98925.35;1636344;85;21740;-69
2022/03/31 09:40:23;;;;;;;26.75;23.75;;;;;;;12.44;64.63;98925.28;1636902;85;21130;-73
2022/03/31 09:43:00;;;;;;;25.27;22.90;;;;;;;12.51;64.28;98917.95;1653943;85;22245;-67
2022/03/31 09:45:40;;;;;;;;;;;;;;;12.55;64.24;98920.44;1656848;85;21036;-70
2022/03/31 09:48:22;;;;;;;25.90;23.42;;;;;;;12.62;63.61;98918.95;1623354;85;20143;-69
2022/03/31 09:50:54;;;;;;;24.63;22.40;;;;;;;12.63;63.46;98916.05;1670279;83;21065;-70
2022/03/31 09:53:23;;;;;;;27.35;24.75;;;;;;;12.71;62.81;98920.21;1618698;85;21014;-70
2022/03/31 09:55:53;;;;;;;23.67;21.27;;;;;;;12.74;61.92;98929.11;1652981;85;22342;-68
2022/03/31 09:58:22;;;;;;;25.02;22.62;;;;;;;12.70;62.42;98921.81;1668797;85;21035;-70
2022/03/31 10:00:51;;;;;;;24.32;22.02;;;;;;;12.73;62.69;98922.66;1659561;85;20983;-69
2022/03/31 10:03:24;;;;;;;25.72;23.32;;;;;;;12.80;62.15;98919.33;1666059;85;21617;-68
2022/03/31 10:05:53;;;;;;;26.02;23.57;;;;;;;12.87;62.06;98920.01;1661011;85;22330;-67
2022/03/31 10:08:23;;;;;;;26.25;23.52;;;;;;;12.94;62.21;98928.70;1672983;83;21506;-69
2022/03/31 10:10:52;;;;;;;26.20;23.75;;;;;;;13.02;61.89;98919.48;1651400;85;22284;-69
2022/03/31 10:13:25;;;;;;;24.10;21.77;;;;;;;13.10;61.08;98919.09;1687507;83;21581;-70
2022/03/31 10:15:59;;;;;;;27.48;24.77;;;;;;;13.15;61.30;98914.38;1703074;83;20954;-71
2022/03/31 10:18:27;;;;;;;25.65;23.35;;;;;;;13.22;61.08;98907.83;1690955;83;21002;-70
2022/03/31 10:21:00;;;;;;;26.82;24.37;;;;;;;13.31;60.89;98913.61;1679773;83;22390;-70
2022/03/31 10:26:28;;;;;;;32.00;26.02;;;;;;;13.42;60.79;98907.38;1648181;85;21196;-70
2022/03/31 10:29:02;;;;;;;26.77;24.30;;;;;;;13.50;60.76;98906.70;1633432;85;21095;-70
2022/03/31 10:31:40;;;;;;;27.20;24.50;;;;;;;13.61;60.67;98895.91;1648568;85;21776;-71
2022/03/31 10:34:11;;;;;;;28.75;25.85;;;;;;;13.71;60.63;98895.28;1657187;84;21081;-68
2022/03/31 10:36:47;;;;;;;25.25;22.95;;;;;;;13.76;59.43;98896.68;1657651;84;21545;-69
2022/03/31 10:39:21;;;;;;;27.30;24.50;;;;;;;13.68;59.55;98896.30;1667651;84;21079;-71
2022/03/31 10:42:11;;;;;;;28.17;25.60;;;;;;;13.63;60.07;98895.67;1671288;84;21098;-68
2022/03/31 10:44:40;;;;;;;26.95;24.40;;;;;;;13.63;60.41;98890.31;1669043;84;21011;-70
2022/03/31 10:47:10;;;;;;;27.10;24.52;;;;;;;13.69;60.54;98889.33;1602857;87;21192;-69
2022/03/31 10:49:43;;;;;;;27.35;24.90;;;;;;;13.80;60.49;98885.76;1594768;87;21549;-69
2022/03/31 10:52:19;;;;;;;27.60;24.98;;;;;;;13.90;59.91;98889.65;1644137;86;21194;-71
2022/03/31 10:54:50;;;;;;;26.52;24.12;;;;;;;13.97;59.98;98888.95;1636844;86;20993;-69
2022/03/31 10:57:20;;;;;;;27.58;24.87;;;;;;;14.08;59.43;98889.92;1577145;88;21066;-71
2022/03/31 10:59:52;;;;;;;26.55;23.75;;;;;;;14.10;58.90;98882.45;1654298;84;21110;-69
2022/03/31 11:02:23;;;;;;;28.07;25.50;;;;;;;14.10;59.28;98889.94;1662264;85;21078;-69
2022/03/31 11:05:00;;;;;;;26.23;23.57;;;;;;;14.15;59.20;98875.28;1678459;83;21154;-69
2022/03/31 11:07:29;;;;;;;23.65;21.65;;;;;;;14.28;59.04;98877.31;1671911;83;21579;-70
2022/03/31 11:10:09;;;;;;;25.80;23.35;;;;;;;14.38;58.29;98870.22;1682693;85;21097;-70
2022/03/31 11:12:41;;;;;;;25.80;23.15;;;;;;;14.47;58.37;98871.94;1698458;82;21554;-71
2022/03/31 11:15:13;;;;;;;27.17;24.52;;;;;;;14.57;57.68;98868.59;1652034;84;21028;-70
2022/03/31 11:17:43;;;;;;;24.63;22.13;;;;;;;14.65;57.79;98874.05;1659009;84;21538;-70
2022/03/31 11:20:18;;;;;;;26.85;24.20;;;;;;;14.74;57.53;98876.03;1700526;82;21753;-69
2022/03/31 11:22:54;;;;;;;24.57;22.37;;;;;;;14.84;57.10;98876.67;1681333;83;21575;-71
2022/03/31 11:25:26;;;;;;;25.52;23.12;;;;;;;14.93;56.94;98871.13;1682643;84;20995;-70
2022/03/31 11:27:58;;;;;;;24.12;21.85;;;;;;;15.05;56.89;98879.05;1681392;84;21002;-67
2022/03/31 11:30:34;;;;;;;26.07;23.50;;;;;;;15.16;56.04;98876.75;1637837;84;21568;-71
2022/03/31 11:33:04;;;;;;;25.90;23.43;;;;;;;15.22;55.87;98877.61;1701848;83;21569;-70
2022/03/31 11:35:34;;;;;;;24.47;22.15;;;;;;;15.26;55.41;98869.31;1686582;83;21030;-69
2022/03/31 11:38:06;;;;;;;24.87;22.48;;;;;;;15.28;55.59;98873.89;1692433;83;21058;-70
2022/03/31 11:40:43;;;;;;;25.50;22.98;;;;;;;15.33;55.49;98881.17;1650798;84;21149;-71
2022/03/31 11:43:15;;;;;;;24.47;22.25;;;;;;;15.38;55.43;98882.02;1672887;83;21055;-71